sensor_id;sensor_type;location;lat;lon;timestamp;temperature;humidity
5344;DHT22;2694;48.954;8.928;2023-03-05T00:01:53;3.30;99.90
5344;DHT22;2694;48.954;8.928;2023-03-05T00:04:19;3.30;99.90
5344;DHT22;2694;48.954;8.928;2023-03-05T00:06:48;3.30;99.90
5344;DHT22;2694;48.954;8.928;2023-03-05T00:09:15;3.30;99.90
5344;DHT22;2694;48.954;8.928;2023-03-05T00:11:42;3.30;99.90
5344;DHT22;2694;48.954;8.928;2023-03-05T00:14:10;3.30;99.90
5344;DHT22;2694;48.954;8.928;2023-03-05T00:16:39;3.30;99.90
5344;DHT22;2694;48.954;8.928;2023-03-05T00:19:06;3.40;99.90
5344;DHT22;2694;48.954;8.928;2023-03-05T00:21:34;3.30;99.90
5344;DHT22;2694;48.954;8.928;2023-03-05T00:24:04;3.20;99.90
5344;DHT22;2694;48.954;8.928;2023-03-05T00:26:33;3.20;99.90
5344;DHT22;2694;48.954;8.928;2023-03-05T00:29:00;3.20;99.90
5344;DHT22;2694;48.954;8.928;2023-03-05T00:31:29;3.20;99.90
5344;DHT22;2694;48.954;8.928;2023-03-05T00:33:59;3.10;99.90
5344;DHT22;2694;48.954;8.928;2023-03-05T00:36:27;3.20;99.90
5344;DHT22;2694;48.954;8.928;2023-03-05T00:38:55;3.20;99.90
5344;DHT22;2694;48.954;8.928;2023-03-05T00:41:22;3.20;99.90
5344;DHT22;2694;48.954;8.928;2023-03-05T00:43:49;3.10;99.90
5344;DHT22;2694;48.954;8.928;2023-03-05T00:46:16;3.20;99.90
5344;DHT22;2694;48.954;8.928;2023-03-05T00:48:43;3.20;99.90
5344;DHT22;2694;48.954;8.928;2023-03-05T00:51:11;3.20;99.90
5344;DHT22;2694;48.954;8.928;2023-03-05T00:53:38;3.20;99.90
5344;DHT22;2694;48.954;8.928;2023-03-05T00:56:05;3.10;99.90
5344;DHT22;2694;48.954;8.928;2023-03-05T00:58:32;3.10;99.90
5344;DHT22;2694;48.954;8.928;2023-03-05T01:01:00;3.20;99.90
5344;DHT22;2694;48.954;8.928;2023-03-05T01:03:27;3.20;99.90
5344;DHT22;2694;48.954;8.928;2023-03-05T01:05:55;3.30;99.90
5344;DHT22;2694;48.954;8.928;2023-03-05T01:08:23;3.30;99.90
5344;DHT22;2694;48.954;8.928;2023-03-05T01:10:50;3.40;99.90
5344;DHT22;2694;48.954;8.928;2023-03-05T01:13:18;3.40;99.90
5344;DHT22;2694;48.954;8.928;2023-03-05T01:15:45;3.40;99.90
5344;DHT22;2694;48.954;8.928;2023-03-05T01:18:13;3.40;99.90
5344;DHT22;2694;48.954;8.928;2023-03-05T01:20:40;3.40;99.90
5344;DHT22;2694;48.954;8.928;2023-03-05T01:23:07;3.40;99.90
5344;DHT22;2694;48.954;8.928;2023-03-05T01:25:35;3.40;99.90
5344;DHT22;2694;48.954;8.928;2023-03-05T01:28:03;3.30;99.90
5344;DHT22;2694;48.954;8.928;2023-03-05T01:30:31;3.30;99.90
5344;DHT22;2694;48.954;8.928;2023-03-05T01:32:58;3.30;99.90
5344;DHT22;2694;48.954;8.928;2023-03-05T01:35:25;3.30;99.90
5344;DHT22;2694;48.954;8.928;2023-03-05T01:37:52;3.30;99.90
5344;DHT22;2694;48.954;8.928;2023-03-05T01:40:22;3.30;99.90
5344;DHT22;2694;48.954;8.928;2023-03-05T01:42:58;3.30;99.90
5344;DHT22;2694;48.954;8.928;2023-03-05T01:45:25;3.40;99.90
5344;DHT22;2694;48.954;8.928;2023-03-05T01:47:52;3.30;99.90
5344;DHT22;2694;48.954;8.928;2023-03-05T01:50:22;3.30;99.90
5344;DHT22;2694;48.954;8.928;2023-03-05T01:52:53;3.30;99.90
5344;DHT22;2694;48.954;8.928;2023-03-05T01:55:24;3.30;99.90
5344;DHT22;2694;48.954;8.928;2023-03-05T01:57:56;3.30;99.90
5344;DHT22;2694;48.954;8.928;2023-03-05T02:00:26;3.20;99.90
5344;DHT22;2694;48.954;8.928;2023-03-05T02:02:56;3.20;99.90
5344;DHT22;2694;48.954;8.928;2023-03-05T02:05:29;3.30;99.90
5344;DHT22;2694;48.954;8.928;2023-03-05T02:07:57;3.30;99.90
5344;DHT22;2694;48.954;8.928;2023-03-05T02:10:26;3.30;99.90
5344;DHT22;2694;48.954;8.928;2023-03-05T02:12:57;3.30;99.90
5344;DHT22;2694;48.954;8.928;2023-03-05T02:15:25;3.20;99.90
5344;DHT22;2694;48.954;8.928;2023-03-05T02:17:52;3.10;99.90
5344;DHT22;2694;48.954;8.928;2023-03-05T02:20:20;3.10;99.90
5344;DHT22;2694;48.954;8.928;2023-03-05T02:22:49;3.10;99.90
5344;DHT22;2694;48.954;8.928;2023-03-05T02:25:19;3.10;99.90
5344;DHT22;2694;48.954;8.928;2023-03-05T02:27:51;3.10;99.90
5344;DHT22;2694;48.954;8.928;2023-03-05T02:30:20;3.10;99.90
5344;DHT22;2694;48.954;8.928;2023-03-05T02:32:47;3.10;99.90
5344;DHT22;2694;48.954;8.928;2023-03-05T02:35:14;3.20;99.90
5344;DHT22;2694;48.954;8.928;2023-03-05T02:37:41;3.10;99.90
5344;DHT22;2694;48.954;8.928;2023-03-05T02:40:11;3.10;99.90
5344;DHT22;2694;48.954;8.928;2023-03-05T02:42:39;3.10;99.90
5344;DHT22;2694;48.954;8.928;2023-03-05T02:45:07;3.10;99.90
5344;DHT22;2694;48.954;8.928;2023-03-05T02:47:34;3.10;99.90
5344;DHT22;2694;48.954;8.928;2023-03-05T02:50:01;3.10;99.90
5344;DHT22;2694;48.954;8.928;2023-03-05T02:52:28;3.20;99.90
5344;DHT22;2694;48.954;8.928;2023-03-05T02:54:56;3.20;99.90
5344;DHT22;2694;48.954;8.928;2023-03-05T02:57:24;3.20;99.90
5344;DHT22;2694;48.954;8.928;2023-03-05T02:59:51;3.10;99.90
5344;DHT22;2694;48.954;8.928;2023-03-05T03:02:18;3.10;99.90
5344;DHT22;2694;48.954;8.928;2023-03-05T03:04:45;3.10;99.90
5344;DHT22;2694;48.954;8.928;2023-03-05T03:07:13;3.00;99.90
5344;DHT22;2694;48.954;8.928;2023-03-05T03:09:41;3.10;99.90
5344;DHT22;2694;48.954;8.928;2023-03-05T03:12:09;3.00;99.90
5344;DHT22;2694;48.954;8.928;2023-03-05T03:14:39;3.10;99.90
5344;DHT22;2694;48.954;8.928;2023-03-05T03:17:08;3.20;99.90
5344;DHT22;2694;48.954;8.928;2023-03-05T03:19:35;3.10;99.90
5344;DHT22;2694;48.954;8.928;2023-03-05T03:22:02;3.10;99.90
5344;DHT22;2694;48.954;8.928;2023-03-05T03:24:30;3.10;99.90
5344;DHT22;2694;48.954;8.928;2023-03-05T03:26:57;3.00;99.90
5344;DHT22;2694;48.954;8.928;2023-03-05T03:29:24;3.00;99.90
5344;DHT22;2694;48.954;8.928;2023-03-05T03:31:52;3.00;99.90
5344;DHT22;2694;48.954;8.928;2023-03-05T03:34:19;3.00;99.90
5344;DHT22;2694;48.954;8.928;2023-03-05T03:36:47;3.00;99.90
5344;DHT22;2694;48.954;8.928;2023-03-05T03:39:15;3.00;99.90
5344;DHT22;2694;48.954;8.928;2023-03-05T03:41:45;2.80;99.90
5344;DHT22;2694;48.954;8.928;2023-03-05T03:44:12;2.90;99.90
5344;DHT22;2694;48.954;8.928;2023-03-05T03:46:42;3.00;99.90
5344;DHT22;2694;48.954;8.928;2023-03-05T03:49:14;2.90;99.90
5344;DHT22;2694;48.954;8.928;2023-03-05T03:51:41;2.90;99.90
5344;DHT22;2694;48.954;8.928;2023-03-05T03:54:08;2.80;99.90
5344;DHT22;2694;48.954;8.928;2023-03-05T03:56:35;2.90;99.90
5344;DHT22;2694;48.954;8.928;2023-03-05T03:59:02;2.90;99.90
5344;DHT22;2694;48.954;8.928;2023-03-05T04:01:29;2.90;99.90
5344;DHT22;2694;48.954;8.928;2023-03-05T04:03:56;2.90;99.90
5344;DHT22;2694;48.954;8.928;2023-03-05T04:06:24;2.90;99.90
5344;DHT22;2694;48.954;8.928;2023-03-05T04:08:51;2.80;99.90
5344;DHT22;2694;48.954;8.928;2023-03-05T04:11:18;2.90;99.90
5344;DHT22;2694;48.954;8.928;2023-03-05T04:13:45;2.90;99.90
5344;DHT22;2694;48.954;8.928;2023-03-05T04:16:12;3.00;99.90
5344;DHT22;2694;48.954;8.928;2023-03-05T04:18:39;2.90;99.90
5344;DHT22;2694;48.954;8.928;2023-03-05T04:21:07;2.80;99.90
5344;DHT22;2694;48.954;8.928;2023-03-05T04:23:35;2.80;99.90
5344;DHT22;2694;48.954;8.928;2023-03-05T04:26:03;2.80;99.90
5344;DHT22;2694;48.954;8.928;2023-03-05T04:28:30;2.90;99.90
5344;DHT22;2694;48.954;8.928;2023-03-05T04:30:57;2.90;99.90
5344;DHT22;2694;48.954;8.928;2023-03-05T04:33:24;2.90;99.90
5344;DHT22;2694;48.954;8.928;2023-03-05T04:35:51;2.90;99.90
5344;DHT22;2694;48.954;8.928;2023-03-05T04:38:20;2.90;99.90
5344;DHT22;2694;48.954;8.928;2023-03-05T04:40:48;2.90;99.90
5344;DHT22;2694;48.954;8.928;2023-03-05T04:43:15;2.80;99.90
5344;DHT22;2694;48.954;8.928;2023-03-05T04:45:42;2.80;99.90
5344;DHT22;2694;48.954;8.928;2023-03-05T04:48:10;2.80;99.90
5344;DHT22;2694;48.954;8.928;2023-03-05T04:50:37;2.80;99.90
5344;DHT22;2694;48.954;8.928;2023-03-05T04:53:04;2.80;99.90
5344;DHT22;2694;48.954;8.928;2023-03-05T04:55:31;2.80;99.90
5344;DHT22;2694;48.954;8.928;2023-03-05T04:58:00;2.80;99.90
5344;DHT22;2694;48.954;8.928;2023-03-05T05:00:26;2.90;99.90
5344;DHT22;2694;48.954;8.928;2023-03-05T05:02:53;2.80;99.90
5344;DHT22;2694;48.954;8.928;2023-03-05T05:05:23;2.90;99.90
5344;DHT22;2694;48.954;8.928;2023-03-05T05:07:53;2.90;99.90
5344;DHT22;2694;48.954;8.928;2023-03-05T05:10:20;2.80;99.90
5344;DHT22;2694;48.954;8.928;2023-03-05T05:12:47;2.80;99.90
5344;DHT22;2694;48.954;8.928;2023-03-05T05:15:16;2.80;99.90
5344;DHT22;2694;48.954;8.928;2023-03-05T05:17:43;2.70;99.90
5344;DHT22;2694;48.954;8.928;2023-03-05T05:20:11;2.70;99.90
5344;DHT22;2694;48.954;8.928;2023-03-05T05:22:40;2.70;99.90
5344;DHT22;2694;48.954;8.928;2023-03-05T05:25:07;2.70;99.90
5344;DHT22;2694;48.954;8.928;2023-03-05T05:27:35;2.70;99.90
5344;DHT22;2694;48.954;8.928;2023-03-05T05:30:02;2.80;99.90
5344;DHT22;2694;48.954;8.928;2023-03-05T05:32:31;2.70;99.90
5344;DHT22;2694;48.954;8.928;2023-03-05T05:34:58;2.80;99.90
5344;DHT22;2694;48.954;8.928;2023-03-05T05:37:25;2.70;99.90
5344;DHT22;2694;48.954;8.928;2023-03-05T05:39:52;2.80;99.90
5344;DHT22;2694;48.954;8.928;2023-03-05T05:42:21;2.70;99.90
5344;DHT22;2694;48.954;8.928;2023-03-05T05:44:48;2.70;99.90
5344;DHT22;2694;48.954;8.928;2023-03-05T05:47:16;2.80;99.90
5344;DHT22;2694;48.954;8.928;2023-03-05T05:49:44;2.80;99.90
5344;DHT22;2694;48.954;8.928;2023-03-05T05:52:12;2.70;99.90
5344;DHT22;2694;48.954;8.928;2023-03-05T05:54:39;2.80;99.90
5344;DHT22;2694;48.954;8.928;2023-03-05T05:57:06;2.90;99.90
5344;DHT22;2694;48.954;8.928;2023-03-05T05:59:33;2.80;99.90
5344;DHT22;2694;48.954;8.928;2023-03-05T06:02:01;2.80;99.90
5344;DHT22;2694;48.954;8.928;2023-03-05T06:04:28;2.70;99.90
5344;DHT22;2694;48.954;8.928;2023-03-05T06:06:57;2.80;99.90
5344;DHT22;2694;48.954;8.928;2023-03-05T06:09:24;2.80;99.90
5344;DHT22;2694;48.954;8.928;2023-03-05T06:11:51;2.70;99.90
5344;DHT22;2694;48.954;8.928;2023-03-05T06:14:18;2.70;99.90
5344;DHT22;2694;48.954;8.928;2023-03-05T06:16:45;2.70;99.90
5344;DHT22;2694;48.954;8.928;2023-03-05T06:19:12;2.70;99.90
5344;DHT22;2694;48.954;8.928;2023-03-05T06:21:39;2.80;99.90
5344;DHT22;2694;48.954;8.928;2023-03-05T06:24:09;2.80;99.90
5344;DHT22;2694;48.954;8.928;2023-03-05T06:26:37;2.80;99.90
5344;DHT22;2694;48.954;8.928;2023-03-05T06:29:03;2.80;99.90
5344;DHT22;2694;48.954;8.928;2023-03-05T06:31:30;2.80;99.90
5344;DHT22;2694;48.954;8.928;2023-03-05T06:33:59;2.80;99.90
5344;DHT22;2694;48.954;8.928;2023-03-05T06:36:27;2.80;99.90
5344;DHT22;2694;48.954;8.928;2023-03-05T06:38:54;2.90;99.90
5344;DHT22;2694;48.954;8.928;2023-03-05T06:41:25;2.90;99.90
5344;DHT22;2694;48.954;8.928;2023-03-05T06:43:52;2.90;99.90
5344;DHT22;2694;48.954;8.928;2023-03-05T06:46:22;2.90;99.90
5344;DHT22;2694;48.954;8.928;2023-03-05T06:48:50;2.90;99.90
5344;DHT22;2694;48.954;8.928;2023-03-05T06:51:20;2.90;99.90
5344;DHT22;2694;48.954;8.928;2023-03-05T06:53:47;2.90;99.90
5344;DHT22;2694;48.954;8.928;2023-03-05T06:56:14;3.00;99.90
5344;DHT22;2694;48.954;8.928;2023-03-05T06:58:45;3.00;99.90
5344;DHT22;2694;48.954;8.928;2023-03-05T07:01:13;3.10;99.90
5344;DHT22;2694;48.954;8.928;2023-03-05T07:03:41;3.00;99.90
5344;DHT22;2694;48.954;8.928;2023-03-05T07:06:09;3.00;99.90
5344;DHT22;2694;48.954;8.928;2023-03-05T07:08:37;3.00;99.90
5344;DHT22;2694;48.954;8.928;2023-03-05T07:11:08;3.10;99.90
5344;DHT22;2694;48.954;8.928;2023-03-05T07:13:35;3.10;99.90
5344;DHT22;2694;48.954;8.928;2023-03-05T07:16:06;3.10;99.90
5344;DHT22;2694;48.954;8.928;2023-03-05T07:18:33;3.20;99.90
5344;DHT22;2694;48.954;8.928;2023-03-05T07:21:04;3.20;99.90
5344;DHT22;2694;48.954;8.928;2023-03-05T07:23:31;3.20;99.90
5344;DHT22;2694;48.954;8.928;2023-03-05T07:26:00;3.20;99.90
5344;DHT22;2694;48.954;8.928;2023-03-05T07:28:28;3.10;99.90
5344;DHT22;2694;48.954;8.928;2023-03-05T07:30:56;3.20;99.90
5344;DHT22;2694;48.954;8.928;2023-03-05T07:33:25;3.20;99.90
5344;DHT22;2694;48.954;8.928;2023-03-05T07:35:53;3.30;99.90
5344;DHT22;2694;48.954;8.928;2023-03-05T07:38:20;3.30;99.90
5344;DHT22;2694;48.954;8.928;2023-03-05T07:40:47;3.30;99.90
5344;DHT22;2694;48.954;8.928;2023-03-05T07:43:14;3.30;99.90
5344;DHT22;2694;48.954;8.928;2023-03-05T07:45:42;3.40;99.90
5344;DHT22;2694;48.954;8.928;2023-03-05T07:48:12;3.40;99.90
5344;DHT22;2694;48.954;8.928;2023-03-05T07:50:41;3.30;99.90
5344;DHT22;2694;48.954;8.928;2023-03-05T07:53:08;3.30;99.90
5344;DHT22;2694;48.954;8.928;2023-03-05T07:55:41;3.40;99.90
5344;DHT22;2694;48.954;8.928;2023-03-05T07:58:08;3.40;99.90
5344;DHT22;2694;48.954;8.928;2023-03-05T08:00:35;3.50;99.90
5344;DHT22;2694;48.954;8.928;2023-03-05T08:03:02;3.70;99.90
5344;DHT22;2694;48.954;8.928;2023-03-05T08:05:29;3.70;99.90
5344;DHT22;2694;48.954;8.928;2023-03-05T08:07:57;3.70;99.90
5344;DHT22;2694;48.954;8.928;2023-03-05T08:10:24;3.80;99.90
5344;DHT22;2694;48.954;8.928;2023-03-05T08:12:51;3.90;99.90
5344;DHT22;2694;48.954;8.928;2023-03-05T08:15:18;4.00;99.90
5344;DHT22;2694;48.954;8.928;2023-03-05T08:17:45;4.10;99.90
5344;DHT22;2694;48.954;8.928;2023-03-05T08:20:12;4.10;99.90
5344;DHT22;2694;48.954;8.928;2023-03-05T08:22:39;4.20;99.90
5344;DHT22;2694;48.954;8.928;2023-03-05T08:25:08;4.20;99.90
5344;DHT22;2694;48.954;8.928;2023-03-05T08:27:37;4.30;99.90
5344;DHT22;2694;48.954;8.928;2023-03-05T08:30:06;4.40;99.90
5344;DHT22;2694;48.954;8.928;2023-03-05T08:32:33;4.40;99.90
5344;DHT22;2694;48.954;8.928;2023-03-05T08:35:00;4.30;99.90
5344;DHT22;2694;48.954;8.928;2023-03-05T08:37:28;4.40;99.90
5344;DHT22;2694;48.954;8.928;2023-03-05T08:39:55;4.30;99.90
5344;DHT22;2694;48.954;8.928;2023-03-05T08:42:24;4.40;99.90
5344;DHT22;2694;48.954;8.928;2023-03-05T08:44:51;4.50;99.90
5344;DHT22;2694;48.954;8.928;2023-03-05T08:47:18;4.50;99.90
5344;DHT22;2694;48.954;8.928;2023-03-05T08:49:45;4.60;99.90
5344;DHT22;2694;48.954;8.928;2023-03-05T08:52:12;4.70;99.90
5344;DHT22;2694;48.954;8.928;2023-03-05T08:54:39;4.70;99.90
5344;DHT22;2694;48.954;8.928;2023-03-05T08:57:06;4.60;99.90
5344;DHT22;2694;48.954;8.928;2023-03-05T08:59:34;4.40;99.90
5344;DHT22;2694;48.954;8.928;2023-03-05T09:02:02;4.30;99.90
5344;DHT22;2694;48.954;8.928;2023-03-05T09:04:28;4.30;99.90
5344;DHT22;2694;48.954;8.928;2023-03-05T09:06:56;4.20;99.90
5344;DHT22;2694;48.954;8.928;2023-03-05T09:09:23;4.30;99.90
5344;DHT22;2694;48.954;8.928;2023-03-05T09:11:50;4.40;99.90
5344;DHT22;2694;48.954;8.928;2023-03-05T09:14:17;4.30;99.90
5344;DHT22;2694;48.954;8.928;2023-03-05T09:16:45;4.20;99.90
5344;DHT22;2694;48.954;8.928;2023-03-05T09:19:12;4.10;99.90
5344;DHT22;2694;48.954;8.928;2023-03-05T09:21:39;4.10;99.90
5344;DHT22;2694;48.954;8.928;2023-03-05T09:24:10;4.20;99.90
5344;DHT22;2694;48.954;8.928;2023-03-05T09:26:37;4.30;99.90
5344;DHT22;2694;48.954;8.928;2023-03-05T09:29:18;4.40;99.90
5344;DHT22;2694;48.954;8.928;2023-03-05T09:31:49;4.50;99.90
5344;DHT22;2694;48.954;8.928;2023-03-05T09:34:18;4.60;99.90
5344;DHT22;2694;48.954;8.928;2023-03-05T09:40:32;4.60;99.90
5344;DHT22;2694;48.954;8.928;2023-03-05T09:43:10;4.50;99.90
5344;DHT22;2694;48.954;8.928;2023-03-05T09:45:45;4.50;99.90
5344;DHT22;2694;48.954;8.928;2023-03-05T09:48:18;4.50;99.90
5344;DHT22;2694;48.954;8.928;2023-03-05T09:50:48;4.50;99.90
5344;DHT22;2694;48.954;8.928;2023-03-05T09:53:22;4.70;99.90
5344;DHT22;2694;48.954;8.928;2023-03-05T09:55:52;4.80;99.90
5344;DHT22;2694;48.954;8.928;2023-03-05T09:58:24;5.00;99.90
5344;DHT22;2694;48.954;8.928;2023-03-05T10:00:57;5.00;99.90
5344;DHT22;2694;48.954;8.928;2023-03-05T10:03:29;5.10;99.90
5344;DHT22;2694;48.954;8.928;2023-03-05T10:06:03;5.00;99.90
5344;DHT22;2694;48.954;8.928;2023-03-05T10:08:49;4.90;99.90
5344;DHT22;2694;48.954;8.928;2023-03-05T10:11:36;5.10;99.90
5344;DHT22;2694;48.954;8.928;2023-03-05T10:14:09;4.90;99.90
5344;DHT22;2694;48.954;8.928;2023-03-05T10:16:59;4.70;99.90
5344;DHT22;2694;48.954;8.928;2023-03-05T10:22:30;4.80;99.90
5344;DHT22;2694;48.954;8.928;2023-03-05T10:25:13;4.90;99.90
5344;DHT22;2694;48.954;8.928;2023-03-05T10:27:46;5.00;99.90
5344;DHT22;2694;48.954;8.928;2023-03-05T10:30:28;5.20;99.90
5344;DHT22;2694;48.954;8.928;2023-03-05T10:33:02;5.30;99.90
5344;DHT22;2694;48.954;8.928;2023-03-05T10:35:59;5.50;99.90
5344;DHT22;2694;48.954;8.928;2023-03-05T10:41:36;5.70;99.90
5344;DHT22;2694;48.954;8.928;2023-03-05T10:44:10;5.60;99.90
5344;DHT22;2694;48.954;8.928;2023-03-05T10:46:40;5.60;99.90
5344;DHT22;2694;48.954;8.928;2023-03-05T10:49:16;5.80;99.90
5344;DHT22;2694;48.954;8.928;2023-03-05T10:51:51;5.90;99.90
5344;DHT22;2694;48.954;8.928;2023-03-05T10:54:22;5.60;99.90
5344;DHT22;2694;48.954;8.928;2023-03-05T10:57:02;5.70;99.90
5344;DHT22;2694;48.954;8.928;2023-03-05T10:59:30;5.80;99.90
5344;DHT22;2694;48.954;8.928;2023-03-05T11:02:02;5.80;99.90
5344;DHT22;2694;48.954;8.928;2023-03-05T11:04:36;5.90;99.90
5344;DHT22;2694;48.954;8.928;2023-03-05T11:07:33;5.80;99.90
5344;DHT22;2694;48.954;8.928;2023-03-05T11:10:15;5.90;99.90
5344;DHT22;2694;48.954;8.928;2023-03-05T11:12:43;6.00;99.90
5344;DHT22;2694;48.954;8.928;2023-03-05T11:15:25;6.10;99.90
5344;DHT22;2694;48.954;8.928;2023-03-05T11:21:07;6.00;99.90
5344;DHT22;2694;48.954;8.928;2023-03-05T11:23:36;6.10;99.90
5344;DHT22;2694;48.954;8.928;2023-03-05T11:26:04;6.10;99.90
5344;DHT22;2694;48.954;8.928;2023-03-05T11:28:56;6.00;99.90
5344;DHT22;2694;48.954;8.928;2023-03-05T11:31:24;5.90;99.90
5344;DHT22;2694;48.954;8.928;2023-03-05T11:33:57;5.80;99.90
5344;DHT22;2694;48.954;8.928;2023-03-05T11:36:26;5.90;99.90
5344;DHT22;2694;48.954;8.928;2023-03-05T11:38:57;5.90;99.90
5344;DHT22;2694;48.954;8.928;2023-03-05T11:41:28;5.90;99.90
5344;DHT22;2694;48.954;8.928;2023-03-05T11:43:58;5.90;99.90
5344;DHT22;2694;48.954;8.928;2023-03-05T11:46:28;5.90;99.90
5344;DHT22;2694;48.954;8.928;2023-03-05T11:48:58;5.90;99.90
5344;DHT22;2694;48.954;8.928;2023-03-05T11:51:30;5.80;99.90
5344;DHT22;2694;48.954;8.928;2023-03-05T11:54:06;5.90;99.90
5344;DHT22;2694;48.954;8.928;2023-03-05T11:56:36;6.00;99.90
5344;DHT22;2694;48.954;8.928;2023-03-05T11:59:10;6.00;99.90
5344;DHT22;2694;48.954;8.928;2023-03-05T12:01:41;5.80;99.90
5344;DHT22;2694;48.954;8.928;2023-03-05T12:04:08;5.80;99.90
5344;DHT22;2694;48.954;8.928;2023-03-05T12:06:38;5.70;99.90
5344;DHT22;2694;48.954;8.928;2023-03-05T12:09:13;5.70;99.90
5344;DHT22;2694;48.954;8.928;2023-03-05T12:11:41;5.80;99.90
5344;DHT22;2694;48.954;8.928;2023-03-05T12:14:16;5.80;99.90
5344;DHT22;2694;48.954;8.928;2023-03-05T12:16:51;5.80;99.90
5344;DHT22;2694;48.954;8.928;2023-03-05T12:19:35;5.70;99.90
5344;DHT22;2694;48.954;8.928;2023-03-05T12:22:15;5.50;99.90
5344;DHT22;2694;48.954;8.928;2023-03-05T12:24:44;5.50;99.90
5344;DHT22;2694;48.954;8.928;2023-03-05T12:27:15;5.50;99.90
5344;DHT22;2694;48.954;8.928;2023-03-05T12:29:45;5.50;99.90
5344;DHT22;2694;48.954;8.928;2023-03-05T12:35:28;5.40;99.90
5344;DHT22;2694;48.954;8.928;2023-03-05T12:38:01;5.30;99.90
5344;DHT22;2694;48.954;8.928;2023-03-05T12:40:31;5.20;99.90
5344;DHT22;2694;48.954;8.928;2023-03-05T12:42:59;5.20;99.90
5344;DHT22;2694;48.954;8.928;2023-03-05T12:45:35;5.20;99.90
5344;DHT22;2694;48.954;8.928;2023-03-05T12:48:39;5.20;99.90
5344;DHT22;2694;48.954;8.928;2023-03-05T12:51:26;5.10;99.90
5344;DHT22;2694;48.954;8.928;2023-03-05T12:53:55;5.00;99.90
5344;DHT22;2694;48.954;8.928;2023-03-05T12:56:29;5.00;99.90
5344;DHT22;2694;48.954;8.928;2023-03-05T12:58:59;5.00;99.90
5344;DHT22;2694;48.954;8.928;2023-03-05T13:01:39;5.00;99.90
5344;DHT22;2694;48.954;8.928;2023-03-05T13:04:14;5.00;99.90
5344;DHT22;2694;48.954;8.928;2023-03-05T13:06:44;5.00;99.90
5344;DHT22;2694;48.954;8.928;2023-03-05T13:09:16;5.00;99.90
5344;DHT22;2694;48.954;8.928;2023-03-05T13:11:47;5.00;99.90
5344;DHT22;2694;48.954;8.928;2023-03-05T13:14:36;5.00;99.90
5344;DHT22;2694;48.954;8.928;2023-03-05T13:17:24;4.90;99.90
5344;DHT22;2694;48.954;8.928;2023-03-05T13:19:52;4.90;99.90
5344;DHT22;2694;48.954;8.928;2023-03-05T13:22:19;4.90;99.90
5344;DHT22;2694;48.954;8.928;2023-03-05T13:24:49;4.90;99.90
5344;DHT22;2694;48.954;8.928;2023-03-05T13:27:32;5.00;99.90
5344;DHT22;2694;48.954;8.928;2023-03-05T13:30:01;5.00;99.90
5344;DHT22;2694;48.954;8.928;2023-03-05T13:32:30;5.00;99.90
5344;DHT22;2694;48.954;8.928;2023-03-05T13:34:59;5.10;99.90
5344;DHT22;2694;48.954;8.928;2023-03-05T13:37:27;5.10;99.90
5344;DHT22;2694;48.954;8.928;2023-03-05T13:39:58;5.00;99.90
5344;DHT22;2694;48.954;8.928;2023-03-05T13:42:26;4.90;99.90
5344;DHT22;2694;48.954;8.928;2023-03-05T13:44:57;4.90;99.90
5344;DHT22;2694;48.954;8.928;2023-03-05T13:47:26;4.80;99.90
5344;DHT22;2694;48.954;8.928;2023-03-05T13:49:57;4.80;99.90
5344;DHT22;2694;48.954;8.928;2023-03-05T13:52:25;4.70;99.90
5344;DHT22;2694;48.954;8.928;2023-03-05T13:54:54;4.70;99.90
5344;DHT22;2694;48.954;8.928;2023-03-05T13:57:46;4.80;99.90
5344;DHT22;2694;48.954;8.928;2023-03-05T14:00:31;4.70;99.90
5344;DHT22;2694;48.954;8.928;2023-03-05T14:03:05;4.60;99.90
5344;DHT22;2694;48.954;8.928;2023-03-05T14:05:34;4.60;99.90
5344;DHT22;2694;48.954;8.928;2023-03-05T14:08:02;4.60;99.90
5344;DHT22;2694;48.954;8.928;2023-03-05T14:10:33;4.70;99.90
5344;DHT22;2694;48.954;8.928;2023-03-05T14:13:04;4.70;99.90
5344;DHT22;2694;48.954;8.928;2023-03-05T14:15:34;4.80;99.90
5344;DHT22;2694;48.954;8.928;2023-03-05T14:18:16;4.80;99.90
5344;DHT22;2694;48.954;8.928;2023-03-05T14:20:59;4.80;99.90
5344;DHT22;2694;48.954;8.928;2023-03-05T14:23:37;4.80;99.90
5344;DHT22;2694;48.954;8.928;2023-03-05T14:26:27;4.70;99.90
5344;DHT22;2694;48.954;8.928;2023-03-05T14:28:56;4.80;99.90
5344;DHT22;2694;48.954;8.928;2023-03-05T14:31:27;4.80;99.90
5344;DHT22;2694;48.954;8.928;2023-03-05T14:33:59;4.90;99.90
5344;DHT22;2694;48.954;8.928;2023-03-05T14:36:28;4.90;99.90
5344;DHT22;2694;48.954;8.928;2023-03-05T14:38:56;4.80;99.90
5344;DHT22;2694;48.954;8.928;2023-03-05T14:41:37;5.00;99.90
5344;DHT22;2694;48.954;8.928;2023-03-05T14:44:11;5.00;99.90
5344;DHT22;2694;48.954;8.928;2023-03-05T14:46:40;4.90;99.90
5344;DHT22;2694;48.954;8.928;2023-03-05T14:49:07;4.90;99.90
5344;DHT22;2694;48.954;8.928;2023-03-05T14:51:37;5.10;99.90
5344;DHT22;2694;48.954;8.928;2023-03-05T14:54:05;5.00;99.90
5344;DHT22;2694;48.954;8.928;2023-03-05T14:56:32;5.00;99.90
5344;DHT22;2694;48.954;8.928;2023-03-05T14:59:00;5.00;99.90
5344;DHT22;2694;48.954;8.928;2023-03-05T15:01:27;5.00;99.90
5344;DHT22;2694;48.954;8.928;2023-03-05T15:03:55;4.90;99.90
5344;DHT22;2694;48.954;8.928;2023-03-05T15:06:26;4.80;99.90
5344;DHT22;2694;48.954;8.928;2023-03-05T15:08:56;4.80;99.90
5344;DHT22;2694;48.954;8.928;2023-03-05T15:11:23;4.70;99.90
5344;DHT22;2694;48.954;8.928;2023-03-05T15:13:50;4.70;99.90
5344;DHT22;2694;48.954;8.928;2023-03-05T15:16:17;4.70;99.90
5344;DHT22;2694;48.954;8.928;2023-03-05T15:18:44;4.70;99.90
5344;DHT22;2694;48.954;8.928;2023-03-05T15:21:12;4.70;99.90
5344;DHT22;2694;48.954;8.928;2023-03-05T15:23:40;4.70;99.90
5344;DHT22;2694;48.954;8.928;2023-03-05T15:26:11;4.60;99.90
5344;DHT22;2694;48.954;8.928;2023-03-05T15:28:39;4.50;99.90
5344;DHT22;2694;48.954;8.928;2023-03-05T15:31:06;4.40;99.90
5344;DHT22;2694;48.954;8.928;2023-03-05T15:33:33;4.40;99.90
5344;DHT22;2694;48.954;8.928;2023-03-05T15:36:00;4.40;99.90
5344;DHT22;2694;48.954;8.928;2023-03-05T15:38:29;4.40;99.90
5344;DHT22;2694;48.954;8.928;2023-03-05T15:40:56;4.40;99.90
5344;DHT22;2694;48.954;8.928;2023-03-05T15:43:24;4.40;99.90
5344;DHT22;2694;48.954;8.928;2023-03-05T15:45:51;4.30;99.90
5344;DHT22;2694;48.954;8.928;2023-03-05T15:48:18;4.40;99.90
5344;DHT22;2694;48.954;8.928;2023-03-05T15:50:45;4.40;99.90
5344;DHT22;2694;48.954;8.928;2023-03-05T15:53:13;4.40;99.90
5344;DHT22;2694;48.954;8.928;2023-03-05T15:55:44;4.40;99.90
5344;DHT22;2694;48.954;8.928;2023-03-05T15:58:13;4.50;99.90
5344;DHT22;2694;48.954;8.928;2023-03-05T16:00:41;4.40;99.90
5344;DHT22;2694;48.954;8.928;2023-03-05T16:03:08;4.40;99.90
5344;DHT22;2694;48.954;8.928;2023-03-05T16:05:36;4.50;99.90
5344;DHT22;2694;48.954;8.928;2023-03-05T16:08:03;4.50;99.90
5344;DHT22;2694;48.954;8.928;2023-03-05T16:10:30;4.60;99.90
5344;DHT22;2694;48.954;8.928;2023-03-05T16:13:01;4.50;99.90
5344;DHT22;2694;48.954;8.928;2023-03-05T16:15:30;4.40;99.90
5344;DHT22;2694;48.954;8.928;2023-03-05T16:17:59;4.30;99.90
5344;DHT22;2694;48.954;8.928;2023-03-05T16:20:27;4.40;99.90
5344;DHT22;2694;48.954;8.928;2023-03-05T16:22:54;4.40;99.90
5344;DHT22;2694;48.954;8.928;2023-03-05T16:25:20;4.50;99.90
5344;DHT22;2694;48.954;8.928;2023-03-05T16:27:47;4.50;99.90
5344;DHT22;2694;48.954;8.928;2023-03-05T16:30:16;4.50;99.90
5344;DHT22;2694;48.954;8.928;2023-03-05T16:32:43;4.40;99.90
5344;DHT22;2694;48.954;8.928;2023-03-05T16:35:10;4.30;99.90
5344;DHT22;2694;48.954;8.928;2023-03-05T16:37:38;4.30;99.90
5344;DHT22;2694;48.954;8.928;2023-03-05T16:40:07;4.30;99.90
5344;DHT22;2694;48.954;8.928;2023-03-05T16:42:34;4.20;99.90
5344;DHT22;2694;48.954;8.928;2023-03-05T16:45:01;4.20;99.90
5344;DHT22;2694;48.954;8.928;2023-03-05T16:47:29;4.30;99.90
5344;DHT22;2694;48.954;8.928;2023-03-05T16:49:56;4.20;99.90